Orbital elements of COSMOS 2549
| Launched | 1 February 2021 |
| Flight ended | – |
| Launch site | Plesetsk Missile and Space Complex, Russia |
| Owner | Commonwealth of Independent States (former USSR) |
| NORAD ID | 47546 |
| Date fetched |
Epoch osculation |
Inc. [°] |
Ecc. | RA asc node [hr] |
Arg Peri. [°] |
Mean anom [°] |
Mean motion [rev/day] |
Abs. mag |
| Date fetched |
Epoch osculation |
Inc. [°] |
Ecc. | RA asc node [hr] |
Arg Peri. [°] |
Mean anom [°] |
Mean motion [rev/day] |
Abs. mag |
| 2026 May 05 17:57 | 2026 May 05 12:09:21 | 67.1487 | 0.00059 | 5.9238 | 263.1274 | 96.9139 | 13.97018 | – |
| 2026 May 04 17:57 | 2026 May 04 12:06:03 | 67.1485 | 0.00059 | 6.0863 | 263.0930 | 96.9139 | 13.97018 | – |
| 2026 May 03 17:57 | 2026 May 03 12:02:45 | 67.1484 | 0.00059 | 6.2488 | 263.0799 | 96.9139 | 13.97018 | – |
| 2026 May 02 17:57 | 2026 May 02 11:59:28 | 67.1483 | 0.00059 | 6.4113 | 263.0821 | 96.9139 | 13.97018 | – |
| 2026 May 01 17:56 | 2026 May 01 11:56:10 | 67.1482 | 0.00059 | 6.5738 | 263.1344 | 96.9139 | 13.97018 | – |
| 2026 Apr 30 17:56 | 2026 Apr 30 11:52:52 | 67.1481 | 0.00060 | 6.7363 | 263.1635 | 96.9139 | 13.97018 | – |
| 2026 Apr 29 17:57 | 2026 Apr 29 11:49:34 | 67.1479 | 0.00060 | 6.8988 | 263.0949 | 96.9139 | 13.97018 | – |
| 2026 Apr 28 17:56 | 2026 Apr 28 13:29:22 | 67.1478 | 0.00060 | 7.0497 | 263.0908 | 96.9139 | 13.97018 | – |
| 2026 Apr 27 17:58 | 2026 Apr 27 13:26:04 | 67.1464 | 0.00060 | 7.2122 | 263.0433 | 96.9139 | 13.97018 | – |
| 2026 Apr 26 17:58 | 2026 Apr 26 11:39:41 | 67.1475 | 0.00060 | 7.3863 | 263.0206 | 96.9139 | 13.97018 | – |
| 2026 Apr 25 17:58 | 2026 Apr 25 13:19:29 | 67.1464 | 0.00060 | 7.5372 | 263.0099 | 96.9139 | 13.97018 | – |
| 2026 Apr 24 17:59 | 2026 Apr 24 13:16:11 | 67.1474 | 0.00060 | 7.6997 | 262.9818 | 96.9139 | 13.97018 | – |
| 2026 Apr 23 17:57 | 2026 Apr 23 06:20:31 | 67.1474 | 0.00061 | 7.9086 | 262.9349 | 96.9139 | 13.97018 | – |
| 2026 Apr 22 17:57 | 2026 Apr 22 06:17:13 | 67.1474 | 0.00061 | 8.0711 | 262.9306 | 96.9139 | 13.97018 | – |
| 2026 Apr 21 17:57 | 2026 Apr 21 13:06:17 | 67.1474 | 0.00061 | 8.1872 | 262.9823 | 96.9139 | 13.97018 | – |
| 2026 Apr 20 17:57 | 2026 Apr 20 13:03:00 | 67.1475 | 0.00061 | 8.3497 | 262.9684 | 96.9139 | 13.97018 | – |
| 2026 Apr 19 17:58 | 2026 Apr 19 12:59:42 | 67.1476 | 0.00061 | 8.5122 | 262.9529 | 96.9139 | 13.97018 | – |
| 2026 Apr 18 17:56 | 2026 Apr 18 07:47:07 | 67.1477 | 0.00061 | 8.7095 | 262.8894 | 96.9139 | 13.97018 | – |
| 2026 Apr 16 17:57 | 2026 Apr 14 19:35:35 | 67.1479 | 0.00061 | 9.2782 | 263.4355 | 96.9139 | 13.97018 | – |
| 2026 Apr 14 17:57 | 2026 Apr 14 12:43:13 | 67.1479 | 0.00061 | 9.3246 | 263.4226 | 96.9139 | 13.97018 | – |
| 2026 Apr 13 17:57 | 2026 Apr 13 07:30:38 | 67.1480 | 0.00061 | 9.5220 | 263.3373 | 96.9139 | 13.97018 | – |
| 2026 Apr 12 17:57 | 2026 Apr 12 12:36:37 | 67.1482 | 0.00061 | 9.6496 | 263.3417 | 96.9139 | 13.97018 | – |
| 2026 Apr 11 17:57 | 2026 Apr 11 12:33:19 | 67.1483 | 0.00061 | 9.8121 | 263.2317 | 96.9139 | 13.97018 | – |
| 2026 Apr 10 17:58 | 2026 Apr 10 07:20:44 | 67.1484 | 0.00061 | 10.0094 | 263.2761 | 96.9139 | 13.97018 | – |
| 2026 Apr 09 18:01 | 2026 Apr 09 07:17:26 | 67.1487 | 0.00061 | 10.1719 | 263.3448 | 96.9139 | 13.97018 | – |
| 2026 Apr 08 17:57 | 2026 Apr 08 07:14:08 | 67.1488 | 0.00061 | 10.3344 | 263.3854 | 96.9139 | 13.97018 | – |